createdAt,value
2023-01-29T00:01:49.089Z,30.60
2023-01-29T00:04:15.452Z,29.88
2023-01-29T00:06:41.680Z,30.65
2023-01-29T00:09:08.047Z,32.83
2023-01-29T00:11:35.043Z,39.55
2023-01-29T00:14:01.325Z,42.67
2023-01-29T00:16:27.641Z,33.28
2023-01-29T00:18:53.947Z,28.70
2023-01-29T00:21:22.098Z,28.15
2023-01-29T00:23:48.840Z,32.83
2023-01-29T00:26:15.734Z,40.17
2023-01-29T00:28:45.207Z,28.80
2023-01-29T00:31:12.775Z,27.55
2023-01-29T00:33:39.219Z,33.10
2023-01-29T00:36:08.544Z,31.90
2023-01-29T00:38:35.671Z,28.05
2023-01-29T00:41:27.383Z,29.73
2023-01-29T00:44:12.616Z,36.50
2023-01-29T00:46:39.163Z,28.10
2023-01-29T00:49:06.573Z,35.78
2023-01-29T00:51:32.900Z,33.42
2023-01-29T00:53:59.744Z,35.35
2023-01-29T00:56:27.883Z,35.38
2023-01-29T00:58:54.561Z,32.65
2023-01-29T01:01:39.267Z,32.35
2023-01-29T01:04:06.106Z,26.58
2023-01-29T01:06:32.471Z,31.92
2023-01-29T01:09:17.552Z,31.90
2023-01-29T01:11:43.852Z,26.47
2023-01-29T01:14:10.183Z,29.17
2023-01-29T01:16:36.523Z,37.05
2023-01-29T01:19:03.472Z,27.35
2023-01-29T01:21:29.844Z,30.00
2023-01-29T01:23:56.190Z,28.55
2023-01-29T01:26:22.519Z,29.55
2023-01-29T01:28:48.856Z,36.42
2023-01-29T01:31:15.571Z,36.45
2023-01-29T01:33:41.921Z,26.98
2023-01-29T01:36:11.233Z,32.25
2023-01-29T01:38:44.239Z,27.23
2023-01-29T01:41:12.659Z,29.33
2023-01-29T01:43:52.954Z,33.45
2023-01-29T01:46:19.583Z,28.63
2023-01-29T01:48:47.923Z,33.28
2023-01-29T01:51:14.651Z,29.25
2023-01-29T01:53:42.964Z,32.65
2023-01-29T01:56:10.913Z,31.58
2023-01-29T01:58:40.155Z,30.63
2023-01-29T02:01:07.991Z,34.22
2023-01-29T02:03:59.195Z,36.10
2023-01-29T02:06:44.508Z,27.33
2023-01-29T02:09:32.464Z,24.05
2023-01-29T02:11:58.828Z,24.02
2023-01-29T02:14:25.359Z,30.80
2023-01-29T02:16:51.647Z,27.73
2023-01-29T02:19:47.582Z,24.88
2023-01-29T02:22:13.847Z,33.65
2023-01-29T02:24:42.980Z,24.75
2023-01-29T02:27:15.260Z,30.13
2023-01-29T02:29:44.331Z,26.42
2023-01-29T02:32:14.382Z,32.92
2023-01-29T02:34:59.669Z,29.55
2023-01-29T02:37:31.731Z,29.77
2023-01-29T02:40:04.927Z,26.40
2023-01-29T02:42:35.723Z,24.40
2023-01-29T02:45:10.055Z,32.30
2023-01-29T02:47:53.058Z,32.25
2023-01-29T02:50:23.717Z,30.23
2023-01-29T02:52:56.703Z,21.52
2023-01-29T02:55:25.582Z,27.13
2023-01-29T02:57:55.295Z,26.27
2023-01-29T03:00:25.642Z,31.80
2023-01-29T03:02:55.540Z,29.95
2023-01-29T03:05:26.941Z,32.03
2023-01-29T03:07:56.266Z,28.08
2023-01-29T03:10:31.005Z,34.03
2023-01-29T03:13:05.031Z,31.55
2023-01-29T03:15:38.677Z,28.90
2023-01-29T03:18:22.383Z,29.88
2023-01-29T03:20:53.706Z,27.23
2023-01-29T03:23:27.019Z,23.58
2023-01-29T03:26:15.258Z,28.20
2023-01-29T03:29:01.951Z,25.23
2023-01-29T03:31:48.133Z,31.42
2023-01-29T03:34:23.982Z,31.35
2023-01-29T03:36:58.343Z,26.85
2023-01-29T03:39:27.962Z,29.15
2023-01-29T03:41:55.001Z,31.75
2023-01-29T03:44:24.918Z,29.88
2023-01-29T03:46:56.127Z,24.48
2023-01-29T03:49:30.376Z,23.60
2023-01-29T03:52:16.051Z,29.33
2023-01-29T03:55:00.727Z,22.92
2023-01-29T03:57:32.805Z,28.00
2023-01-29T04:00:05.420Z,21.45
2023-01-29T04:02:55.502Z,20.58
2023-01-29T04:05:25.763Z,22.90
2023-01-29T04:08:10.136Z,20.08
2023-01-29T04:10:38.723Z,22.65
2023-01-29T04:13:07.474Z,24.27
2023-01-29T04:15:36.366Z,22.02
2023-01-29T04:18:02.712Z,26.38
2023-01-29T04:20:38.925Z,19.45
2023-01-29T04:23:06.295Z,22.77
2023-01-29T04:25:40.328Z,22.50
2023-01-29T04:28:16.934Z,23.75
2023-01-29T04:31:01.155Z,33.75
2023-01-29T04:33:40.719Z,25.58
2023-01-29T04:36:26.199Z,29.27
2023-01-29T04:39:12.068Z,26.50
2023-01-29T04:42:01.420Z,27.30
2023-01-29T04:44:36.884Z,24.15
2023-01-29T04:47:09.317Z,29.48
2023-01-29T04:49:41.649Z,22.45
2023-01-29T04:52:15.487Z,27.25
2023-01-29T04:54:57.524Z,27.42
2023-01-29T04:57:30.405Z,29.60
2023-01-29T04:59:59.947Z,28.15
2023-01-29T05:02:26.823Z,23.20
2023-01-29T05:04:54.010Z,26.27
2023-01-29T05:07:20.885Z,24.42
2023-01-29T05:09:47.575Z,30.73
2023-01-29T05:12:15.695Z,28.38
2023-01-29T05:14:42.875Z,31.90
2023-01-29T05:17:12.731Z,25.35
2023-01-29T05:19:38.983Z,27.13
2023-01-29T05:22:06.227Z,25.52
2023-01-29T05:24:32.682Z,29.63
2023-01-29T05:27:17.995Z,35.03
2023-01-29T05:29:46.329Z,30.27
2023-01-29T05:32:12.964Z,26.92
2023-01-29T05:34:39.260Z,29.83
2023-01-29T05:37:06.064Z,32.40
2023-01-29T05:39:32.704Z,31.58
2023-01-29T05:41:58.993Z,26.35
2023-01-29T05:44:25.302Z,31.25
2023-01-29T05:46:51.709Z,37.28
2023-01-29T05:49:18.408Z,36.25
2023-01-29T05:51:44.687Z,43.58
2023-01-29T05:54:12.263Z,33.45
2023-01-29T05:56:39.651Z,31.17
2023-01-29T05:59:06.679Z,31.00
2023-01-29T06:01:33.221Z,31.48
2023-01-29T06:03:59.554Z,26.20
2023-01-29T06:06:25.839Z,31.08
2023-01-29T06:08:52.208Z,31.35
2023-01-29T06:11:18.532Z,32.60
2023-01-29T06:13:45.645Z,30.60
2023-01-29T06:16:12.660Z,36.75
2023-01-29T06:18:39.913Z,34.72
2023-01-29T06:21:07.503Z,29.45
2023-01-29T06:23:33.920Z,26.65
2023-01-29T06:26:01.117Z,35.03
2023-01-29T06:28:27.372Z,34.20
2023-01-29T06:30:53.659Z,32.08
2023-01-29T06:33:19.953Z,29.08
2023-01-29T06:35:46.200Z,28.38
2023-01-29T06:38:12.509Z,31.20
2023-01-29T06:40:39.011Z,24.85
2023-01-29T06:43:05.286Z,29.00
2023-01-29T06:45:31.764Z,27.52
2023-01-29T06:48:00.528Z,29.20
2023-01-29T06:50:27.653Z,26.90
2023-01-29T06:52:53.890Z,23.00
2023-01-29T06:55:20.376Z,23.88
2023-01-29T06:57:46.692Z,24.90
2023-01-29T07:00:13.410Z,24.63
2023-01-29T07:02:39.673Z,28.20
2023-01-29T07:05:06.077Z,26.25
2023-01-29T07:07:34.711Z,25.20
2023-01-29T07:10:01.087Z,22.85
2023-01-29T07:12:27.397Z,32.72
2023-01-29T07:14:53.719Z,25.75
2023-01-29T07:17:20.633Z,35.75
2023-01-29T07:19:46.943Z,31.23
2023-01-29T07:22:13.206Z,25.73
2023-01-29T07:24:39.537Z,30.88
2023-01-29T07:27:05.908Z,27.27
2023-01-29T07:29:32.181Z,27.52
2023-01-29T07:31:58.592Z,26.73
2023-01-29T07:34:24.982Z,28.83
2023-01-29T07:36:54.451Z,30.52
2023-01-29T07:39:20.689Z,28.63
2023-01-29T07:41:46.974Z,36.70
2023-01-29T07:44:16.355Z,31.30
2023-01-29T07:46:42.760Z,30.92
2023-01-29T07:49:09.056Z,30.17
2023-01-29T07:51:35.361Z,36.53
2023-01-29T07:54:01.634Z,33.63
2023-01-29T07:56:27.920Z,31.17
2023-01-29T07:58:54.182Z,36.72
2023-01-29T08:01:20.477Z,30.17
2023-01-29T08:03:46.873Z,38.47
2023-01-29T08:06:13.152Z,39.25
2023-01-29T08:08:39.402Z,32.53
2023-01-29T08:11:05.858Z,42.97
2023-01-29T08:13:32.547Z,28.50
2023-01-29T08:15:59.591Z,31.00
2023-01-29T08:18:25.852Z,38.80
2023-01-29T08:20:52.883Z,29.77
2023-01-29T08:23:19.264Z,35.63
2023-01-29T08:25:45.576Z,32.03
2023-01-29T08:28:12.359Z,40.30
2023-01-29T08:30:39.007Z,35.55
2023-01-29T08:33:05.412Z,32.42
2023-01-29T08:35:31.871Z,33.28
2023-01-29T08:38:03.192Z,39.70
2023-01-29T08:40:31.744Z,38.15
2023-01-29T08:43:02.627Z,42.15
2023-01-29T08:45:30.247Z,34.55
2023-01-29T08:47:56.564Z,41.53
2023-01-29T08:50:23.039Z,43.53
2023-01-29T08:52:49.278Z,41.70
2023-01-29T08:55:15.914Z,41.38
2023-01-29T08:57:42.306Z,43.50
2023-01-29T09:00:09.919Z,44.15
2023-01-29T09:02:36.777Z,37.60
2023-01-29T09:05:03.263Z,39.67
2023-01-29T09:07:30.015Z,45.80
2023-01-29T09:09:56.333Z,45.42
2023-01-29T09:12:22.716Z,47.40
2023-01-29T09:14:49.083Z,47.50
2023-01-29T09:17:15.424Z,40.90
2023-01-29T09:19:41.698Z,45.78
2023-01-29T09:22:08.312Z,48.67
2023-01-29T09:24:35.332Z,54.17
2023-01-29T09:27:01.950Z,46.45
2023-01-29T09:29:28.329Z,51.65
2023-01-29T09:31:54.713Z,55.90
2023-01-29T09:34:21.079Z,56.15
2023-01-29T09:36:47.372Z,54.55
2023-01-29T09:39:13.654Z,57.22
2023-01-29T09:41:49.258Z,56.08
2023-01-29T09:46:43.197Z,49.55
2023-01-29T09:49:15.250Z,56.13
2023-01-29T09:51:43.139Z,57.28
2023-01-29T09:54:24.173Z,53.03
2023-01-29T09:56:52.712Z,54.58
2023-01-29T09:59:21.406Z,56.30
2023-01-29T10:01:52.792Z,57.65
2023-01-29T10:04:28.599Z,60.85
2023-01-29T10:07:16.002Z,62.95
2023-01-29T10:09:51.112Z,56.15
2023-01-29T10:12:17.393Z,59.55
2023-01-29T10:15:02.426Z,67.53
2023-01-29T10:17:31.555Z,54.58
2023-01-29T10:20:15.959Z,57.13
2023-01-29T10:22:46.359Z,51.67
2023-01-29T10:25:15.378Z,50.08
2023-01-29T10:27:45.205Z,54.90
2023-01-29T10:30:37.958Z,54.53
2023-01-29T10:33:05.827Z,59.60
2023-01-29T10:35:38.910Z,61.30
2023-01-29T10:38:23.778Z,71.07
2023-01-29T10:40:54.546Z,61.55
2023-01-29T10:43:37.151Z,69.40
2023-01-29T10:46:16.556Z,60.08
2023-01-29T10:48:54.883Z,61.50
2023-01-29T10:51:39.603Z,57.88
2023-01-29T10:54:23.940Z,58.42
2023-01-29T10:57:01.355Z,55.97
2023-01-29T10:59:46.133Z,51.88
2023-01-29T11:02:14.867Z,58.92
2023-01-29T11:04:41.164Z,65.05
2023-01-29T11:07:07.978Z,57.33
2023-01-29T11:09:34.300Z,58.47
2023-01-29T11:12:02.068Z,55.10
2023-01-29T11:14:29.815Z,59.90
2023-01-29T11:16:56.127Z,62.83
2023-01-29T11:19:41.806Z,53.38
2023-01-29T11:22:15.444Z,55.83
2023-01-29T11:24:42.018Z,57.95
2023-01-29T11:27:25.906Z,49.80
2023-01-29T11:29:52.995Z,48.55
2023-01-29T11:32:19.236Z,48.95
2023-01-29T11:34:57.429Z,48.63
2023-01-29T11:37:23.856Z,46.58
2023-01-29T11:39:50.577Z,46.42
2023-01-29T11:42:20.798Z,48.28
2023-01-29T11:44:47.117Z,39.78
2023-01-29T11:47:16.382Z,44.30
2023-01-29T11:49:47.773Z,44.55
2023-01-29T11:52:15.478Z,38.90
2023-01-29T11:54:47.248Z,46.00
2023-01-29T11:57:23.177Z,41.80
2023-01-29T11:59:50.775Z,43.17
2023-01-29T12:02:19.818Z,47.28
2023-01-29T12:04:46.637Z,45.90
2023-01-29T12:07:15.282Z,40.78
2023-01-29T12:09:42.080Z,41.10
2023-01-29T12:12:26.283Z,38.75
2023-01-29T12:15:02.575Z,38.65
2023-01-29T12:17:30.041Z,47.60
2023-01-29T12:19:59.345Z,45.17
2023-01-29T12:22:52.168Z,38.92
2023-01-29T12:25:37.238Z,43.53
2023-01-29T12:28:22.216Z,40.50
2023-01-29T12:30:53.512Z,37.75
2023-01-29T12:33:30.384Z,38.90
2023-01-29T12:36:02.889Z,34.95
2023-01-29T12:38:29.547Z,40.58
2023-01-29T12:41:04.413Z,46.00
2023-01-29T12:43:36.988Z,48.75
2023-01-29T12:46:03.936Z,45.33
2023-01-29T12:48:32.523Z,51.67
2023-01-29T12:51:04.498Z,44.40
2023-01-29T12:53:36.761Z,48.13
2023-01-29T12:56:08.297Z,45.65
2023-01-29T12:58:37.455Z,39.55
2023-01-29T13:01:06.816Z,43.03
2023-01-29T13:03:39.789Z,45.47
2023-01-29T13:06:08.505Z,45.63
2023-01-29T13:08:37.781Z,41.90
2023-01-29T13:11:10.430Z,39.90
2023-01-29T13:13:38.513Z,48.10
2023-01-29T13:16:07.488Z,43.13
2023-01-29T13:18:40.088Z,43.83
2023-01-29T13:21:06.852Z,41.22
2023-01-29T13:23:59.305Z,37.65
2023-01-29T13:26:26.545Z,43.15
2023-01-29T13:28:53.064Z,42.35
2023-01-29T13:31:24.350Z,40.83
2023-01-29T13:33:56.391Z,43.97
2023-01-29T13:36:25.273Z,42.25
2023-01-29T13:38:57.758Z,42.08
2023-01-29T13:41:31.340Z,39.60
2023-01-29T13:43:57.660Z,47.75
2023-01-29T13:46:24.018Z,41.28
2023-01-29T13:48:52.235Z,39.22
2023-01-29T13:51:21.790Z,35.65
2023-01-29T13:54:08.278Z,37.90
2023-01-29T13:56:34.588Z,36.42
2023-01-29T13:59:02.144Z,42.95
2023-01-29T14:01:46.990Z,43.90
2023-01-29T14:04:21.467Z,43.05
2023-01-29T14:06:49.580Z,49.55
2023-01-29T14:09:34.978Z,48.50
2023-01-29T14:12:01.371Z,47.10
2023-01-29T14:14:46.611Z,47.30
2023-01-29T14:17:13.960Z,54.17
2023-01-29T14:19:46.290Z,47.58
2023-01-29T14:22:20.370Z,47.08
2023-01-29T14:24:47.187Z,46.30
2023-01-29T14:27:20.155Z,49.00
2023-01-29T14:29:46.490Z,49.03
2023-01-29T14:32:19.223Z,46.10
2023-01-29T14:34:47.738Z,47.72
2023-01-29T14:37:14.099Z,46.28
2023-01-29T14:39:43.481Z,50.83
2023-01-29T14:42:33.050Z,50.35
2023-01-29T14:45:11.412Z,43.65
2023-01-29T14:47:37.740Z,46.63
2023-01-29T14:50:23.004Z,49.13
2023-01-29T14:52:50.534Z,55.72
2023-01-29T14:55:37.125Z,45.50
2023-01-29T14:58:03.800Z,44.70
2023-01-29T15:00:31.373Z,45.50
2023-01-29T15:03:01.919Z,48.55
2023-01-29T15:05:35.574Z,49.15
2023-01-29T15:08:06.686Z,47.05
2023-01-29T15:11:10.900Z,47.97
2023-01-29T15:13:40.969Z,51.58
2023-01-29T15:16:17.486Z,48.00
2023-01-29T15:18:43.989Z,51.20
2023-01-29T15:21:14.369Z,51.72
2023-01-29T15:23:40.763Z,48.78
2023-01-29T15:26:08.270Z,59.53
2023-01-29T15:28:35.258Z,55.33
2023-01-29T15:31:07.699Z,52.53
2023-01-29T15:33:35.897Z,51.80
2023-01-29T15:36:07.413Z,57.72
2023-01-29T15:38:34.503Z,48.28
2023-01-29T15:41:18.249Z,49.40
2023-01-29T15:43:46.097Z,50.83
2023-01-29T15:46:18.989Z,55.97
2023-01-29T15:48:45.434Z,53.10
2023-01-29T15:51:16.813Z,53.97
2023-01-29T15:53:49.248Z,51.78
2023-01-29T15:56:18.023Z,59.25
2023-01-29T15:58:46.674Z,55.67
2023-01-29T16:01:13.122Z,63.15
2023-01-29T16:03:40.046Z,60.83
2023-01-29T16:06:07.150Z,55.33
2023-01-29T16:08:34.275Z,50.67
2023-01-29T16:11:04.687Z,52.67
2023-01-29T16:13:32.646Z,53.17
2023-01-29T16:16:04.109Z,48.55
2023-01-29T16:18:39.574Z,57.35
2023-01-29T16:21:09.891Z,53.63
2023-01-29T16:23:40.322Z,49.50
2023-01-29T16:26:07.585Z,51.78
2023-01-29T16:28:39.269Z,51.08
2023-01-29T16:31:05.946Z,47.28
2023-01-29T16:33:36.857Z,51.80
2023-01-29T16:36:06.002Z,44.08
2023-01-29T16:38:33.370Z,42.72
2023-01-29T16:41:08.853Z,50.78
2023-01-29T16:43:41.918Z,47.00
2023-01-29T16:46:17.900Z,49.50
2023-01-29T16:48:44.341Z,41.42
2023-01-29T16:51:24.843Z,49.75
2023-01-29T16:54:18.978Z,49.25
2023-01-29T16:56:46.150Z,45.65
2023-01-29T16:59:18.110Z,55.15
2023-01-29T17:01:44.523Z,48.67
2023-01-29T17:04:13.384Z,56.75
2023-01-29T17:06:44.546Z,52.60
2023-01-29T17:09:21.465Z,45.60
2023-01-29T17:11:50.242Z,48.90
2023-01-29T17:14:18.344Z,54.97
2023-01-29T17:17:01.984Z,49.83
2023-01-29T17:19:30.032Z,56.65
2023-01-29T17:21:56.921Z,49.67
2023-01-29T17:24:23.296Z,50.60
2023-01-29T17:26:50.109Z,52.58
2023-01-29T17:29:20.724Z,50.78
2023-01-29T17:31:47.345Z,46.72
2023-01-29T17:34:14.687Z,46.13
2023-01-29T17:36:41.597Z,46.03
2023-01-29T17:39:18.318Z,80.13
2023-01-29T17:41:47.342Z,48.15
2023-01-29T17:44:13.712Z,45.38
2023-01-29T17:46:39.970Z,45.53
2023-01-29T17:49:14.380Z,45.58
2023-01-29T17:51:40.720Z,44.33
2023-01-29T17:54:06.975Z,47.75
2023-01-29T17:56:33.268Z,50.58
2023-01-29T17:59:00.788Z,47.75
2023-01-29T18:01:27.243Z,48.08
2023-01-29T18:03:53.630Z,49.13
2023-01-29T18:06:25.234Z,53.35
2023-01-29T18:08:51.618Z,51.90
2023-01-29T18:11:17.996Z,51.42
2023-01-29T18:13:44.284Z,51.35
2023-01-29T18:16:10.667Z,45.92
2023-01-29T18:18:37.011Z,51.72
2023-01-29T18:21:03.388Z,42.20
2023-01-29T18:23:31.056Z,49.83
2023-01-29T18:25:57.746Z,51.63
2023-01-29T18:28:24.645Z,47.95
2023-01-29T18:30:51.010Z,48.42
2023-01-29T18:33:17.672Z,48.63
2023-01-29T18:35:45.050Z,46.72
2023-01-29T18:38:11.623Z,48.65
2023-01-29T18:40:38.176Z,49.22
2023-01-29T18:43:04.492Z,49.95
2023-01-29T18:45:30.951Z,53.90
2023-01-29T18:47:57.583Z,51.97
2023-01-29T18:50:26.051Z,56.97
2023-01-29T18:52:52.703Z,52.92
2023-01-29T18:55:19.296Z,48.45
2023-01-29T18:58:25.219Z,52.75
2023-01-29T19:00:32.259Z,52.65
2023-01-29T19:02:58.559Z,53.13
2023-01-29T19:05:25.600Z,64.60
2023-01-29T19:07:52.359Z,55.30
2023-01-29T19:10:18.802Z,66.15
2023-01-29T19:12:45.143Z,57.15
2023-01-29T19:15:12.069Z,64.53
2023-01-29T19:17:38.747Z,64.72
2023-01-29T19:20:05.338Z,62.05
2023-01-29T19:22:31.982Z,61.83
2023-01-29T19:24:58.318Z,67.57
2023-01-29T19:27:25.998Z,70.85
2023-01-29T19:29:52.744Z,60.58
2023-01-29T19:32:19.151Z,66.35
2023-01-29T19:34:45.491Z,70.97
2023-01-29T19:37:11.826Z,64.50
2023-01-29T19:39:38.143Z,70.03
2023-01-29T19:42:04.724Z,63.15
2023-01-29T19:44:31.087Z,63.17
2023-01-29T19:46:57.434Z,74.03
2023-01-29T19:49:24.864Z,71.28
2023-01-29T19:51:51.199Z,73.80
2023-01-29T19:54:17.496Z,70.30
2023-01-29T19:56:43.797Z,76.85
2023-01-29T19:59:10.508Z,83.30
2023-01-29T20:01:37.395Z,75.53
2023-01-29T20:04:04.506Z,80.50
2023-01-29T20:06:30.981Z,82.35
2023-01-29T20:08:57.780Z,79.93
2023-01-29T20:11:24.695Z,69.30
2023-01-29T20:13:51.676Z,76.38
2023-01-29T20:16:18.528Z,82.63
2023-01-29T20:18:44.905Z,70.60
2023-01-29T20:21:12.235Z,73.43
2023-01-29T20:23:39.844Z,92.53
2023-01-29T20:26:07.271Z,87.18
2023-01-29T20:28:34.466Z,86.50
2023-01-29T20:31:00.984Z,308.75
2023-01-29T20:33:27.469Z,80.43
2023-01-29T20:35:54.972Z,89.80
2023-01-29T20:38:21.270Z,74.78
2023-01-29T20:40:47.534Z,76.97
2023-01-29T20:43:13.824Z,84.75
2023-01-29T20:45:40.121Z,85.68
2023-01-29T20:48:07.888Z,79.03
2023-01-29T20:50:34.817Z,79.93
2023-01-29T20:53:01.323Z,84.30
2023-01-29T20:55:27.820Z,80.78
2023-01-29T20:58:05.990Z,84.65
2023-01-29T21:00:33.139Z,76.70
2023-01-29T21:02:59.436Z,75.88
2023-01-29T21:05:25.719Z,85.80
2023-01-29T21:07:52.061Z,86.85
2023-01-29T21:10:18.669Z,86.97
2023-01-29T21:12:45.474Z,81.47
2023-01-29T21:15:11.856Z,69.53
2023-01-29T21:17:38.139Z,81.40
2023-01-29T21:20:04.582Z,88.22
2023-01-29T21:22:31.271Z,80.13
2023-01-29T21:24:57.573Z,81.68
2023-01-29T21:27:24.743Z,74.55
2023-01-29T21:29:51.159Z,81.00
2023-01-29T21:32:18.687Z,77.38
2023-01-29T21:34:44.965Z,80.60
2023-01-29T21:37:11.227Z,74.47
2023-01-29T21:39:37.557Z,71.10
2023-01-29T21:42:22.809Z,64.78
2023-01-29T21:44:49.163Z,60.97
2023-01-29T21:47:15.501Z,76.88
2023-01-29T21:49:42.571Z,72.13
2023-01-29T21:52:09.698Z,67.57
2023-01-29T21:54:45.640Z,71.38
2023-01-29T21:57:12.998Z,65.93
2023-01-29T21:59:39.444Z,65.75
2023-01-29T22:02:05.835Z,68.57
2023-01-29T22:04:32.200Z,67.18
2023-01-29T22:06:58.675Z,75.85
2023-01-29T22:09:24.947Z,81.20
2023-01-29T22:11:51.380Z,63.00
2023-01-29T22:14:19.497Z,71.10
2023-01-29T22:16:46.021Z,66.15
2023-01-29T22:19:12.831Z,71.50
2023-01-29T22:21:39.326Z,76.95
2023-01-29T22:24:05.928Z,69.50
2023-01-29T22:26:32.252Z,83.00
2023-01-29T22:28:58.539Z,62.63
2023-01-29T22:31:24.869Z,74.68
2023-01-29T22:33:53.126Z,77.80
2023-01-29T22:36:19.540Z,76.80
2023-01-29T22:38:46.561Z,77.97
2023-01-29T22:41:13.455Z,64.03
2023-01-29T22:43:40.891Z,74.30
2023-01-29T22:46:10.560Z,69.88
2023-01-29T22:48:37.124Z,77.78
2023-01-29T22:51:11.074Z,77.35
2023-01-29T22:53:38.432Z,67.40
2023-01-29T22:56:05.869Z,73.68
2023-01-29T22:58:32.405Z,87.07
2023-01-29T23:00:58.819Z,71.68
2023-01-29T23:03:25.089Z,74.35
2023-01-29T23:05:51.385Z,71.45
2023-01-29T23:08:17.784Z,79.85
2023-01-29T23:10:44.079Z,73.32
2023-01-29T23:13:10.387Z,73.82
2023-01-29T23:15:36.666Z,83.28
2023-01-29T23:18:03.540Z,81.05
2023-01-29T23:20:29.819Z,74.13
2023-01-29T23:22:56.096Z,69.03
2023-01-29T23:25:22.578Z,77.90
2023-01-29T23:27:48.873Z,77.55
2023-01-29T23:30:15.514Z,68.97
2023-01-29T23:32:42.154Z,70.03
2023-01-29T23:35:08.668Z,80.15
2023-01-29T23:37:34.929Z,72.68
2023-01-29T23:40:01.274Z,83.68
2023-01-29T23:42:27.556Z,76.57
2023-01-29T23:44:53.896Z,79.53
2023-01-29T23:47:20.182Z,68.82
2023-01-29T23:49:46.452Z,79.70
2023-01-29T23:52:12.746Z,72.53
2023-01-29T23:54:39.027Z,72.05
2023-01-29T23:57:05.326Z,69.40
2023-01-29T23:59:31.657Z,67.43
